Time;durP1;ratioP1;P1;durP2;ratioP2;P2;SDS_P1;SDS_P2;PMS_P1;PMS_P2;Temp;Humidity;BMP_temperature;BMP_pressure;BME280_temperature;BME280_humidity;BME280_pressure;Samples;Min_cycle;Max_cycle;Signal;HPM_P1;HPM_P2
2021/12/27 00:00:41;;;;;;;4.13;0.35;;;23.80;96.60;;;;;;5108866;28;20043;-77
2021/12/27 00:03:08;;;;;;;1.90;0.30;;;23.90;96.20;;;;;;5088209;28;20407;-76
2021/12/27 00:05:36;;;;;;;2.05;0.32;;;24.00;95.80;;;;;;5100908;28;20382;-75
2021/12/27 00:08:04;;;;;;;2.60;0.60;;;24.00;95.80;;;;;;5102843;28;20549;-79
2021/12/27 00:10:31;;;;;;;2.00;0.30;;;24.00;95.70;;;;;;5100137;28;20024;-76
2021/12/27 00:12:59;;;;;;;3.20;0.38;;;24.10;95.30;;;;;;5112357;28;20034;-76
2021/12/27 00:15:27;;;;;;;3.40;0.52;;;24.20;95.40;;;;;;5108133;28;20032;-78
2021/12/27 00:17:54;;;;;;;1.02;0.73;;;24.30;95.20;;;;;;5103732;28;20032;-80
2021/12/27 00:20:22;;;;;;;2.53;0.47;;;24.60;95.30;;;;;;5099965;28;20084;-80
2021/12/27 00:22:50;;;;;;;2.03;0.45;;;24.70;95.00;;;;;;5096489;28;20051;-79
2021/12/27 00:25:19;;;;;;;6.55;1.10;;;24.90;94.60;;;;;;5110616;28;20058;-79
2021/12/27 00:27:46;;;;;;;2.58;0.38;;;25.20;94.60;;;;;;5108566;28;20023;-78
2021/12/27 00:30:20;;;;;;;4.28;1.00;;;25.40;94.10;;;;;;5111147;28;20020;-78
2021/12/27 00:32:48;;;;;;;2.20;0.60;;;25.50;93.50;;;;;;5099670;28;20031;-78
2021/12/27 00:35:18;;;;;;;5.03;1.40;;;25.70;93.20;;;;;;5104468;28;20027;-76
2021/12/27 00:37:45;;;;;;;2.92;0.65;;;25.80;92.70;;;;;;5109636;28;20039;-77
2021/12/27 00:40:17;;;;;;;2.97;0.50;;;25.80;93.10;;;;;;5108930;28;20031;-78
2021/12/27 00:42:49;;;;;;;4.10;0.60;;;25.90;93.10;;;;;;5107487;28;20485;-79
2021/12/27 00:45:17;;;;;;;5.00;0.82;;;26.00;93.00;;;;;;5108626;28;20020;-77
2021/12/27 00:47:44;;;;;;;1.73;0.40;;;26.20;92.80;;;;;;5105690;28;20023;-76
2021/12/27 00:50:12;;;;;;;4.25;0.60;;;26.30;92.70;;;;;;5098431;28;20513;-75
2021/12/27 00:52:40;;;;;;;3.28;0.88;;;26.20;92.50;;;;;;5108101;28;20036;-75
2021/12/27 00:55:09;;;;;;;6.63;0.77;;;26.20;92.30;;;;;;5097238;28;20106;-74
2021/12/27 00:57:38;;;;;;;1.73;0.50;;;25.90;92.30;;;;;;5106096;28;20032;-74
2021/12/27 01:00:09;;;;;;;1.17;0.45;;;25.90;92.60;;;;;;5107585;28;20362;-75
2021/12/27 01:02:37;;;;;;;4.63;0.85;;;26.00;91.90;;;;;;5108172;28;20059;-77
2021/12/27 01:05:04;;;;;;;3.80;1.30;;;26.10;92.30;;;;;;5105588;28;20016;-76
2021/12/27 01:07:32;;;;;;;2.92;0.88;;;26.00;93.00;;;;;;5109100;28;20390;-77
2021/12/27 01:15:34;;;;;;;2.80;0.70;;;26.20;91.60;;;;;;5115528;28;20055;-77
2021/12/27 01:17:59;;;;;;;6.30;0.60;;;26.20;91.70;;;;;;5113857;28;20054;-77
2021/12/27 01:20:27;;;;;;;2.20;0.50;;;26.40;92.50;;;;;;5109973;28;20063;-74
2021/12/27 01:22:56;;;;;;;4.88;0.80;;;26.50;91.10;;;;;;5097203;27;20028;-75
2021/12/27 01:25:24;;;;;;;6.45;0.68;;;26.30;90.80;;;;;;5096726;28;20086;-78
2021/12/27 01:27:52;;;;;;;3.92;1.50;;;26.20;91.50;;;;;;5104578;27;20028;-77
2021/12/27 01:30:20;;;;;;;3.25;0.80;;;26.20;91.60;;;;;;5112940;28;20031;-74
2021/12/27 01:32:53;;;;;;;3.00;0.98;;;26.10;90.70;;;;;;5100658;28;20621;-77
2021/12/27 01:35:21;;;;;;;2.95;0.70;;;25.80;91.30;;;;;;5104837;28;20024;-76
2021/12/27 01:37:50;;;;;;;4.57;0.85;;;25.30;91.80;;;;;;5106376;28;20031;-75
2021/12/27 01:40:22;;;;;;;3.05;0.70;;;25.50;91.90;;;;;;5106876;28;20044;-77
2021/12/27 01:43:10;;;;;;;2.97;0.98;;;25.80;92.00;;;;;;5111664;28;20038;-76
2021/12/27 01:45:44;;;;;;;7.78;1.33;;;26.00;91.60;;;;;;5109234;28;20382;-74
2021/12/27 01:48:14;;;;;;;1.92;0.88;;;26.10;91.60;;;;;;5105017;28;20028;-77
2021/12/27 01:50:44;;;;;;;6.60;0.75;;;26.20;91.00;;;;;;5104116;28;20023;-75
2021/12/27 01:53:13;;;;;;;4.75;0.50;;;26.20;91.00;;;;;;5108105;28;20022;-77
2021/12/27 01:55:41;;;;;;;3.60;0.90;;;26.00;91.10;;;;;;5109839;27;20042;-77
2021/12/27 01:58:09;;;;;;;3.33;1.00;;;25.70;91.10;;;;;;5101548;28;20069;-77
2021/12/27 02:00:40;;;;;;;6.38;0.80;;;25.60;91.30;;;;;;5095208;28;20520;-76
2021/12/27 02:03:07;;;;;;;6.07;1.85;;;25.50;91.30;;;;;;5111433;28;20470;-76
2021/12/27 02:05:36;;;;;;;6.63;1.40;;;25.40;91.00;;;;;;5109215;27;20032;-76
2021/12/27 02:08:05;;;;;;;3.75;0.73;;;25.20;91.30;;;;;;5110571;28;20028;-78
2021/12/27 02:10:33;;;;;;;3.33;0.65;;;25.20;91.50;;;;;;5112821;28;20031;-79
2021/12/27 02:13:00;;;;;;;5.72;1.17;;;25.20;91.30;;;;;;5108580;28;20034;-79
2021/12/27 02:15:28;;;;;;;5.75;0.70;;;25.10;91.20;;;;;;5102999;28;20034;-77
2021/12/27 02:17:56;;;;;;;4.88;1.20;;;25.10;91.30;;;;;;5102295;28;20111;-79
2021/12/27 02:20:27;;;;;;;3.25;0.93;;;25.10;91.20;;;;;;5103484;28;20077;-78
2021/12/27 02:23:00;;;;;;;3.40;0.80;;;25.10;91.00;;;;;;5113169;28;20384;-77
2021/12/27 02:25:30;;;;;;;4.82;0.80;;;25.00;90.90;;;;;;5105328;28;20378;-77
2021/12/27 02:27:59;;;;;;;3.90;0.55;;;25.00;90.90;;;;;;5105045;28;20433;-78
2021/12/27 02:30:27;;;;;;;6.25;0.70;;;25.00;91.30;;;;;;5111755;28;20028;-78
2021/12/27 02:33:00;;;;;;;4.00;0.60;;;25.10;91.10;;;;;;5105395;28;20062;-79
2021/12/27 02:35:31;;;;;;;3.60;1.00;;;25.20;90.70;;;;;;5107198;28;20091;-76
2021/12/27 02:38:01;;;;;;;2.47;1.02;;;25.20;90.40;;;;;;5108993;28;20028;-78
2021/12/27 02:40:32;;;;;;;8.02;1.33;;;25.20;90.50;;;;;;5108694;28;20044;-77
2021/12/27 02:43:03;;;;;;;5.13;0.98;;;25.20;90.60;;;;;;5095335;28;20028;-77
2021/12/27 02:45:33;;;;;;;3.28;1.48;;;25.30;90.40;;;;;;5102267;28;20404;-77
2021/12/27 02:48:01;;;;;;;6.05;1.20;;;25.40;90.10;;;;;;5094246;28;20020;-78
2021/12/27 02:50:31;;;;;;;2.65;1.02;;;25.30;89.70;;;;;;5088355;28;20377;-79
2021/12/27 02:52:59;;;;;;;4.80;0.60;;;25.20;89.70;;;;;;5107088;28;20024;-79
2021/12/27 02:55:27;;;;;;;7.68;1.40;;;25.20;89.50;;;;;;5108533;28;20450;-80
2021/12/27 02:57:55;;;;;;;5.43;0.90;;;25.20;89.50;;;;;;5112067;28;20026;-76
2021/12/27 03:00:30;;;;;;;1.85;1.08;;;25.30;89.40;;;;;;5113426;27;20032;-75
2021/12/27 03:02:58;;;;;;;4.15;0.85;;;25.30;89.20;;;;;;5109504;28;20424;-77
2021/12/27 03:05:28;;;;;;;6.38;1.02;;;25.20;88.90;;;;;;5110565;28;20028;-76
2021/12/27 03:07:56;;;;;;;6.07;1.30;;;25.20;89.40;;;;;;5110615;27;20023;-75
2021/12/27 03:10:27;;;;;;;5.47;1.52;;;25.20;89.80;;;;;;5100897;28;20077;-75
2021/12/27 03:12:56;;;;;;;5.07;1.10;;;25.30;88.80;;;;;;5087180;28;20032;-75
2021/12/27 03:15:24;;;;;;;4.68;0.75;;;25.30;90.00;;;;;;5109760;28;20035;-76
2021/12/27 03:17:54;;;;;;;8.02;1.48;;;25.30;89.60;;;;;;5104686;28;20024;-77
2021/12/27 03:20:25;;;;;;;5.85;1.27;;;25.30;89.10;;;;;;5098442;28;20023;-78
2021/12/27 03:22:53;;;;;;;8.10;1.00;;;25.30;89.20;;;;;;5102509;27;20020;-77
2021/12/27 03:25:24;;;;;;;4.97;0.77;;;25.30;90.10;;;;;;5107923;27;20024;-77
2021/12/27 03:27:52;;;;;;;4.07;0.80;;;25.20;89.40;;;;;;5109077;28;20171;-79
2021/12/27 03:30:28;;;;;;;3.58;1.33;;;25.30;89.30;;;;;;5109242;28;20470;-79
2021/12/27 03:32:56;;;;;;;5.25;1.30;;;25.20;89.00;;;;;;5106536;28;20068;-78
2021/12/27 03:35:29;;;;;;;4.65;0.80;;;25.10;89.60;;;;;;5108975;28;20023;-77
2021/12/27 03:37:59;;;;;;;3.88;1.05;;;25.10;89.50;;;;;;5106745;28;20027;-78
2021/12/27 03:40:27;;;;;;;7.32;1.48;;;25.00;90.20;;;;;;5109713;28;20402;-77
2021/12/27 03:42:56;;;;;;;4.43;0.90;;;24.90;90.10;;;;;;5108527;28;20054;-77
2021/12/27 03:45:36;;;;;;;6.70;1.00;;;25.00;90.50;;;;;;5102309;28;20024;-77
2021/12/27 03:48:05;;;;;;;3.08;1.23;;;24.90;90.50;;;;;;5110594;28;20047;-77
2021/12/27 03:50:33;;;;;;;5.40;0.88;;;24.60;91.00;;;;;;5103590;28;20402;-76
2021/12/27 03:53:00;;;;;;;4.93;0.95;;;24.40;91.50;;;;;;5111780;27;20023;-79
2021/12/27 03:55:28;;;;;;;4.97;1.00;;;24.30;92.10;;;;;;5108200;28;20020;-78
2021/12/27 03:58:06;;;;;;;5.22;1.38;;;24.20;92.40;;;;;;5102031;28;20168;-76
2021/12/27 04:01:00;;;;;;;3.63;0.73;;;24.10;92.50;;;;;;5105282;28;20043;-76
2021/12/27 04:03:29;;;;;;;5.80;2.05;;;24.10;92.30;;;;;;5110163;27;20027;-75
2021/12/27 04:05:57;;;;;;;5.88;1.63;;;24.20;92.30;;;;;;5096202;28;20027;-77
2021/12/27 04:08:25;;;;;;;7.38;1.27;;;24.30;92.60;;;;;;5109694;28;20030;-79
2021/12/27 04:10:54;;;;;;;10.55;1.80;;;24.50;92.10;;;;;;5095059;28;20134;-77
2021/12/27 04:13:22;;;;;;;4.63;0.85;;;24.50;91.80;;;;;;5091011;28;20394;-76
2021/12/27 04:15:51;;;;;;;4.15;0.95;;;24.60;91.70;;;;;;5100403;28;20047;-76
2021/12/27 04:18:19;;;;;;;4.30;1.08;;;24.70;91.70;;;;;;5107061;28;20481;-78
2021/12/27 04:20:47;;;;;;;7.50;1.05;;;24.70;91.80;;;;;;5108314;28;20066;-77
2021/12/27 04:23:14;;;;;;;3.70;0.73;;;24.70;91.90;;;;;;5111626;28;20035;-79
2021/12/27 04:25:43;;;;;;;6.38;1.27;;;24.60;91.80;;;;;;5108745;28;20077;-78
2021/12/27 04:28:11;;;;;;;4.07;0.80;;;24.50;91.80;;;;;;5110190;28;20027;-78
2021/12/27 04:30:38;;;;;;;5.93;0.85;;;24.40;91.90;;;;;;5105509;28;20032;-80
2021/12/27 04:33:07;;;;;;;5.55;0.82;;;24.30;91.80;;;;;;5109901;28;20016;-78
2021/12/27 04:35:35;;;;;;;4.57;1.10;;;24.20;92.10;;;;;;5087579;28;20032;-80
2021/12/27 04:38:02;;;;;;;5.65;0.93;;;24.30;91.80;;;;;;5104324;28;20032;-77
2021/12/27 04:40:34;;;;;;;2.55;0.40;;;24.40;91.80;;;;;;5106914;28;20047;-78
2021/12/27 04:43:10;;;;;;;2.13;0.65;;;24.60;91.60;;;;;;5092835;28;20027;-78
2021/12/27 04:45:38;;;;;;;1.40;0.73;;;25.00;91.70;;;;;;5108414;28;20111;-78
2021/12/27 04:48:06;;;;;;;5.70;0.85;;;25.70;91.30;;;;;;5103322;28;20020;-78
2021/12/27 04:50:35;;;;;;;3.03;0.60;;;26.10;90.40;;;;;;5110452;28;20035;-79
2021/12/27 04:53:03;;;;;;;2.42;0.38;;;26.20;90.10;;;;;;5109822;28;20023;-80
2021/12/27 04:55:30;;;;;;;3.55;0.40;;;26.50;90.20;;;;;;5107083;28;20031;-78
2021/12/27 04:57:58;;;;;;;3.97;1.05;;;26.60;88.80;;;;;;5106398;28;20019;-81
2021/12/27 05:00:26;;;;;;;3.22;0.40;;;26.50;88.10;;;;;;5102987;28;20028;-76
2021/12/27 05:02:53;;;;;;;1.75;0.50;;;26.30;88.00;;;;;;5106994;28;20042;-78
2021/12/27 05:05:21;;;;;;;1.58;0.75;;;26.10;89.20;;;;;;5102536;28;20027;-79
2021/12/27 05:07:48;;;;;;;0.95;0.25;;;25.80;89.10;;;;;;5107661;28;20504;-81
2021/12/27 05:10:18;;;;;;;2.33;0.82;;;25.70;90.60;;;;;;5105459;28;20032;-78
2021/12/27 05:12:46;;;;;;;0.32;0.30;;;25.60;91.20;;;;;;5102287;28;20024;-79
2021/12/27 05:15:13;;;;;;;2.42;0.40;;;25.30;91.50;;;;;;5106334;28;20047;-79
2021/12/27 05:17:41;;;;;;;1.50;0.20;;;24.90;91.90;;;;;;5105772;28;20031;-76
2021/12/27 05:20:09;;;;;;;0.10;0.08;;;24.50;92.50;;;;;;5104417;28;20034;-78
2021/12/27 05:22:37;;;;;;;0.10;0.10;;;24.20;93.30;;;;;;5106300;28;20031;-80
2021/12/27 05:25:06;;;;;;;2.13;0.10;;;23.90;94.10;;;;;;5104287;28;20020;-79
2021/12/27 05:27:33;;;;;;;0.85;0.10;;;23.70;94.70;;;;;;5101903;28;20031;-79
2021/12/27 05:30:01;;;;;;;0.28;0.10;;;23.70;94.90;;;;;;5103976;28;20020;-81
2021/12/27 05:32:28;;;;;;;0.68;0.10;;;23.70;95.00;;;;;;5085288;28;20390;-82
2021/12/27 05:34:56;;;;;;;0.10;0.10;;;23.70;95.50;;;;;;5103807;28;20051;-80
2021/12/27 05:37:23;;;;;;;0.95;0.10;;;23.80;95.80;;;;;;5108464;28;20031;-78
2021/12/27 05:39:50;;;;;;;0.65;0.10;;;23.90;95.70;;;;;;5103772;28;20040;-83
2021/12/27 05:42:18;;;;;;;0.40;0.08;;;23.90;96.00;;;;;;5106357;28;20065;-79
2021/12/27 05:44:45;;;;;;;0.10;0.10;;;23.90;96.30;;;;;;5108432;28;20109;-81
2021/12/27 05:47:13;;;;;;;0.13;0.10;;;23.90;96.70;;;;;;5105262;28;20386;-81
2021/12/27 05:49:40;;;;;;;0.10;0.00;;;24.00;96.80;;;;;;5102536;28;20032;-78
2021/12/27 05:52:08;;;;;;;0.08;0.00;;;23.80;97.50;;;;;;5102085;28;20024;-76
2021/12/27 05:54:35;;;;;;;1.50;0.10;;;23.60;99.10;;;;;;5110391;28;20151;-75
2021/12/27 05:57:03;;;;;;;0.30;0.10;;;23.40;99.90;;;;;;5104488;28;20688;-76
2021/12/27 05:59:30;;;;;;;0.13;0.10;;;23.10;99.90;;;;;;5093727;28;20531;-77
2021/12/27 06:01:57;;;;;;;0.43;0.20;;;22.80;99.90;;;;;;5110040;28;20049;-74
2021/12/27 06:04:25;;;;;;;0.22;0.13;;;22.40;99.90;;;;;;5108997;28;20462;-75
2021/12/27 06:06:52;;;;;;;0.45;0.10;;;22.20;99.90;;;;;;5108636;27;20034;-78
2021/12/27 06:09:19;;;;;;;0.85;0.43;;;22.00;99.90;;;;;;5105175;28;20089;-79
2021/12/27 06:11:47;;;;;;;0.30;0.10;;;21.80;99.90;;;;;;5107643;27;20039;-77
2021/12/27 06:14:14;;;;;;;0.30;0.10;;;21.70;99.90;;;;;;5102607;28;20032;-76
2021/12/27 06:16:41;;;;;;;0.40;0.10;;;21.70;99.90;;;;;;5107305;28;20416;-77
2021/12/27 06:19:08;;;;;;;0.75;0.38;;;21.60;99.90;;;;;;5109530;28;20072;-79
2021/12/27 06:21:37;;;;;;;0.20;0.10;;;21.50;99.90;;;;;;5111640;28;20114;-76
2021/12/27 06:24:04;;;;;;;3.80;0.30;;;21.40;99.90;;;;;;5109846;28;20031;-75
2021/12/27 06:26:32;;;;;;;0.85;0.20;;;21.30;99.90;;;;;;5108494;28;20047;-76
2021/12/27 06:28:59;;;;;;;3.38;0.40;;;21.30;99.90;;;;;;5101116;28;20550;-77
2021/12/27 06:31:27;;;;;;;2.08;0.47;;;21.20;99.90;;;;;;5105134;28;20490;-76
2021/12/27 06:33:54;;;;;;;0.85;0.10;;;21.10;99.90;;;;;;5103901;27;20032;-83
2021/12/27 06:36:21;;;;;;;1.65;0.20;;;21.00;99.90;;;;;;5102878;28;20154;-81
2021/12/27 06:38:49;;;;;;;0.63;0.13;;;21.00;99.90;;;;;;5105628;28;20028;-80
2021/12/27 06:41:16;;;;;;;0.73;0.15;;;20.90;99.90;;;;;;5102467;27;20112;-81
2021/12/27 06:43:43;;;;;;;2.35;0.30;;;20.90;99.90;;;;;;5105634;27;20102;-77
2021/12/27 06:46:11;;;;;;;1.55;0.32;;;21.10;99.90;;;;;;5108053;27;20433;-80
2021/12/27 06:48:38;;;;;;;3.03;0.28;;;21.00;99.90;;;;;;5104330;28;20088;-81
2021/12/27 06:51:05;;;;;;;1.80;0.22;;;20.90;99.90;;;;;;5109942;28;20032;-78
2021/12/27 06:53:33;;;;;;;0.50;0.20;;;20.70;99.90;;;;;;5106697;28;20073;-77
2021/12/27 06:56:02;;;;;;;2.28;0.30;;;20.60;99.90;;;;;;5110764;28;20020;-75
2021/12/27 06:58:31;;;;;;;1.52;0.70;;;20.40;99.90;;;;;;5104931;28;20018;-76
2021/12/27 07:00:58;;;;;;;1.65;0.45;;;20.40;99.90;;;;;;5105364;28;20035;-75
2021/12/27 07:03:25;;;;;;;0.93;0.30;;;20.40;99.90;;;;;;5103521;28;20410;-76
2021/12/27 07:05:53;;;;;;;2.88;1.33;;;20.40;99.90;;;;;;5105514;28;20026;-75
2021/12/27 07:08:22;;;;;;;4.93;0.65;;;20.50;99.90;;;;;;5106600;28;20020;-77
2021/12/27 07:10:50;;;;;;;8.10;1.40;;;20.50;99.90;;;;;;5106870;28;20019;-77
2021/12/27 07:13:17;;;;;;;6.18;1.42;;;20.60;99.90;;;;;;5106315;28;20042;-76
2021/12/27 07:15:45;;;;;;;5.10;0.98;;;20.60;99.90;;;;;;5106567;28;20470;-77
2021/12/27 07:18:16;;;;;;;4.68;1.25;;;20.70;99.90;;;;;;5102074;28;20035;-75
2021/12/27 07:20:43;;;;;;;4.50;1.38;;;20.70;99.90;;;;;;5106956;28;21322;-77
2021/12/27 07:23:11;;;;;;;8.18;2.15;;;20.60;99.90;;;;;;5104049;28;20027;-76
2021/12/27 07:25:38;;;;;;;4.75;1.05;;;20.60;99.90;;;;;;5103547;27;20034;-78
2021/12/27 07:28:06;;;;;;;8.38;1.98;;;20.70;99.90;;;;;;5103358;28;20026;-79
2021/12/27 07:30:33;;;;;;;5.40;1.00;;;20.60;99.90;;;;;;5104573;27;20432;-77
2021/12/27 07:33:00;;;;;;;4.72;0.93;;;20.40;99.90;;;;;;5107228;28;20020;-78
2021/12/27 07:35:29;;;;;;;5.30;0.73;;;20.30;99.90;;;;;;5098873;28;20328;-77
2021/12/27 07:37:56;;;;;;;6.20;1.10;;;20.10;99.90;;;;;;5101951;28;20035;-77
2021/12/27 07:40:23;;;;;;;5.28;1.17;;;20.20;99.90;;;;;;5107480;28;20044;-76
2021/12/27 07:42:51;;;;;;;4.28;1.08;;;20.20;99.90;;;;;;5111145;28;20019;-78
2021/12/27 07:45:18;;;;;;;7.40;1.13;;;20.10;99.90;;;;;;5107923;28;20016;-78
2021/12/27 07:47:45;;;;;;;6.07;1.95;;;20.00;99.90;;;;;;5111205;28;20047;-76
2021/12/27 07:50:13;;;;;;;8.63;1.13;;;20.00;99.90;;;;;;5091481;28;20020;-78
2021/12/27 07:52:40;;;;;;;5.82;1.33;;;20.00;99.90;;;;;;5105308;28;20414;-76
2021/12/27 07:55:08;;;;;;;3.33;0.60;;;19.90;99.90;;;;;;5105898;28;20105;-78
2021/12/27 07:57:36;;;;;;;4.47;0.50;;;19.80;99.90;;;;;;5097709;28;20470;-76
2021/12/27 08:00:07;;;;;;;8.32;0.80;;;19.80;99.90;;;;;;5089611;28;20482;-76
2021/12/27 08:02:35;;;;;;;5.15;0.70;;;19.90;99.90;;;;;;5089758;28;20035;-75
2021/12/27 08:05:02;;;;;;;7.57;0.90;;;19.90;99.90;;;;;;5090299;28;20150;-73
2021/12/27 08:07:30;;;;;;;5.20;0.88;;;20.00;99.90;;;;;;5088125;27;20040;-76
2021/12/27 08:09:57;;;;;;;1.83;0.82;;;20.10;99.90;;;;;;5087937;28;20016;-75
2021/12/27 08:12:24;;;;;;;3.05;1.15;;;20.10;99.90;;;;;;5092258;28;20035;-77
2021/12/27 08:14:52;;;;;;;4.40;0.68;;;20.00;99.90;;;;;;5088992;28;20110;-75
2021/12/27 08:17:19;;;;;;;9.13;0.90;;;19.90;99.90;;;;;;5089954;28;21608;-76
2021/12/27 08:19:47;;;;;;;1.50;0.35;;;19.90;99.90;;;;;;5089001;28;20158;-77
2021/12/27 08:22:15;;;;;;;3.25;1.88;;;19.80;99.90;;;;;;5088755;28;20047;-77
2021/12/27 08:24:42;;;;;;;3.53;0.80;;;19.70;99.90;;;;;;5090629;28;20043;-75
2021/12/27 08:27:09;;;;;;;4.35;0.85;;;19.80;99.90;;;;;;5089075;28;20031;-75
2021/12/27 08:29:37;;;;;;;8.70;1.25;;;19.80;99.90;;;;;;5088667;27;20107;-80
2021/12/27 08:32:05;;;;;;;5.32;0.65;;;19.80;99.90;;;;;;5089858;28;20028;-76
2021/12/27 08:34:32;;;;;;;4.85;0.68;;;19.80;99.90;;;;;;5086903;28;20031;-77
2021/12/27 08:37:00;;;;;;;3.67;0.88;;;19.80;99.90;;;;;;5102667;28;20030;-78
2021/12/27 08:39:28;;;;;;;2.72;0.93;;;19.90;99.90;;;;;;5100211;28;20662;-79
2021/12/27 08:41:55;;;;;;;6.55;0.75;;;19.90;99.90;;;;;;5089191;28;20176;-77
2021/12/27 08:44:23;;;;;;;3.70;0.63;;;19.90;99.90;;;;;;5090373;28;20135;-78
2021/12/27 08:46:50;;;;;;;3.08;0.95;;;19.90;99.90;;;;;;5089695;28;20034;-75
2021/12/27 08:49:18;;;;;;;4.40;0.95;;;19.80;99.90;;;;;;5089489;28;20059;-76
2021/12/27 08:51:46;;;;;;;5.13;1.15;;;19.90;99.90;;;;;;5088555;28;20406;-76
2021/12/27 08:54:13;;;;;;;5.40;0.95;;;19.90;99.90;;;;;;5090305;28;20439;-77
2021/12/27 08:56:41;;;;;;;2.03;0.60;;;19.90;99.90;;;;;;5086756;28;20042;-76
2021/12/27 08:59:08;;;;;;;3.28;0.75;;;19.80;99.90;;;;;;5090266;28;20115;-78
2021/12/27 09:01:36;;;;;;;6.32;0.55;;;19.80;99.90;;;;;;5092390;28;20035;-78
2021/12/27 09:04:04;;;;;;;6.50;0.73;;;19.80;99.90;;;;;;5092397;28;20020;-78
2021/12/27 09:06:35;;;;;;;4.10;0.45;;;19.70;99.90;;;;;;5092677;28;20030;-76
2021/12/27 09:09:05;;;;;;;1.50;0.40;;;19.60;99.90;;;;;;5089835;28;20023;-77
2021/12/27 09:11:32;;;;;;;5.95;0.80;;;19.60;99.90;;;;;;5087840;28;20198;-78
2021/12/27 09:14:00;;;;;;;2.17;0.82;;;19.50;99.90;;;;;;5087699;28;20484;-77
2021/12/27 09:16:28;;;;;;;3.78;0.50;;;19.40;99.90;;;;;;5088560;28;20043;-78
2021/12/27 09:18:56;;;;;;;2.67;0.70;;;19.40;99.90;;;;;;5090026;28;20111;-75
2021/12/27 09:21:24;;;;;;;2.05;1.13;;;19.40;99.90;;;;;;5087440;28;20039;-77
2021/12/27 09:23:52;;;;;;;2.72;0.60;;;19.30;99.90;;;;;;5088651;28;20028;-77
2021/12/27 09:26:20;;;;;;;1.75;0.30;;;19.30;99.90;;;;;;5089087;28;20050;-79
2021/12/27 09:28:47;;;;;;;4.35;0.82;;;19.20;99.90;;;;;;5088792;28;20031;-77
2021/12/27 09:31:14;;;;;;;3.20;0.55;;;19.10;99.90;;;;;;5088246;28;21067;-77
2021/12/27 09:33:42;;;;;;;2.45;0.70;;;19.10;99.90;;;;;;5096385;28;20035;-79
2021/12/27 09:36:09;;;;;;;2.35;0.65;;;19.10;99.90;;;;;;5097941;27;20020;-76
2021/12/27 09:38:36;;;;;;;2.45;0.45;;;19.20;99.90;;;;;;5094088;28;20117;-76
2021/12/27 09:41:04;;;;;;;2.00;0.50;;;19.10;99.90;;;;;;5094301;28;20046;-78
2021/12/27 09:43:31;;;;;;;2.92;0.57;;;19.10;99.90;;;;;;5090812;28;20646;-78
2021/12/27 09:45:59;;;;;;;1.17;0.60;;;19.20;99.90;;;;;;5092063;28;20530;-79
2021/12/27 09:48:27;;;;;;;3.95;0.52;;;19.30;99.90;;;;;;5090401;27;20371;-79
2021/12/27 09:50:57;;;;;;;2.63;0.50;;;19.20;99.90;;;;;;5093728;28;20027;-76
2021/12/27 09:53:24;;;;;;;1.95;0.57;;;19.20;99.90;;;;;;5088824;27;20128;-79
2021/12/27 09:55:52;;;;;;;2.28;0.40;;;19.10;99.90;;;;;;5092171;28;20051;-78
2021/12/27 09:58:20;;;;;;;1.05;0.60;;;19.10;99.90;;;;;;5089539;28;20028;-76
2021/12/27 10:00:49;;;;;;;1.75;0.63;;;19.00;99.90;;;;;;5091751;27;20417;-78
2021/12/27 10:03:16;;;;;;;1.17;0.60;;;19.00;99.90;;;;;;5091211;27;20028;-78
2021/12/27 10:05:43;;;;;;;1.92;0.40;;;19.00;99.90;;;;;;5092438;28;20068;-77
2021/12/27 10:08:11;;;;;;;1.60;0.95;;;18.90;99.90;;;;;;5090301;27;20742;-76
2021/12/27 10:10:38;;;;;;;1.33;0.32;;;18.80;99.90;;;;;;5089602;28;20023;-78
2021/12/27 10:13:11;;;;;;;3.13;0.55;;;18.80;99.90;;;;;;5089380;28;20023;-77
2021/12/27 10:15:41;;;;;;;2.45;0.30;;;18.70;99.90;;;;;;5092196;27;20019;-79
2021/12/27 10:18:18;;;;;;;3.40;0.35;;;18.80;99.90;;;;;;5064975;28;20036;-77
2021/12/27 10:20:46;;;;;;;2.78;0.50;;;18.90;99.90;;;;;;5092107;27;20028;-77
2021/12/27 10:23:14;;;;;;;2.60;0.35;;;18.90;99.90;;;;;;5090691;27;20670;-76
2021/12/27 10:25:41;;;;;;;1.70;0.30;;;19.00;99.90;;;;;;5094139;27;20024;-74
2021/12/27 10:28:08;;;;;;;1.67;0.60;;;19.00;99.90;;;;;;5094681;28;20051;-77
2021/12/27 10:30:43;;;;;;;0.50;0.10;;;19.00;99.90;;;;;;5093451;27;20059;-77
2021/12/27 10:33:14;;;;;;;3.13;0.38;;;19.00;99.90;;;;;;5094123;27;20027;-77
2021/12/27 10:35:42;;;;;;;1.60;0.30;;;18.90;99.90;;;;;;5098619;28;20394;-75
2021/12/27 10:38:31;;;;;;;3.03;0.75;;;18.80;99.90;;;;;;5092888;28;20024;-75
2021/12/27 10:41:10;;;;;;;0.73;0.17;;;18.80;99.90;;;;;;5091880;28;20446;-74
2021/12/27 10:43:56;;;;;;;3.78;0.43;;;18.70;99.90;;;;;;5097502;27;20026;-74
2021/12/27 10:46:23;;;;;;;0.95;0.40;;;18.70;99.90;;;;;;5098872;28;20047;-78
2021/12/27 10:48:57;;;;;;;2.42;0.82;;;18.70;99.90;;;;;;5111159;28;20111;-79
2021/12/27 10:51:26;;;;;;;5.43;0.52;;;18.60;99.90;;;;;;5108502;28;20055;-79
2021/12/27 10:53:55;;;;;;;1.35;0.55;;;18.70;99.90;;;;;;5113304;28;20023;-77
2021/12/27 10:56:26;;;;;;;0.50;0.30;;;18.70;99.90;;;;;;5111572;28;20016;-77
2021/12/27 10:59:00;;;;;;;2.35;0.20;;;18.60;99.90;;;;;;5099180;28;20027;-80
2021/12/27 11:01:28;;;;;;;0.68;0.30;;;18.60;99.90;;;;;;5104322;28;20027;-79
2021/12/27 11:04:00;;;;;;;3.08;0.98;;;18.60;99.90;;;;;;5109505;28;20046;-80
2021/12/27 11:06:30;;;;;;;3.05;0.40;;;18.60;99.90;;;;;;5101828;28;20062;-80
2021/12/27 11:08:58;;;;;;;2.25;0.43;;;18.60;99.90;;;;;;5109104;28;20023;-77
2021/12/27 11:11:27;;;;;;;0.93;0.20;;;18.60;99.90;;;;;;5112481;28;20088;-78
2021/12/27 11:13:57;;;;;;;2.83;0.50;;;18.70;99.90;;;;;;5112445;28;20032;-78
2021/12/27 11:16:27;;;;;;;2.67;0.73;;;18.60;99.90;;;;;;5110119;28;20031;-74
2021/12/27 11:18:59;;;;;;;2.28;0.93;;;18.60;99.90;;;;;;5102412;28;20073;-77
2021/12/27 11:21:31;;;;;;;1.90;0.30;;;18.60;99.90;;;;;;5110503;28;20066;-75
2021/12/27 11:24:01;;;;;;;0.57;0.30;;;18.60;99.90;;;;;;5102639;28;20062;-78
2021/12/27 11:26:32;;;;;;;1.40;0.30;;;18.50;99.90;;;;;;5103161;28;20071;-77
2021/12/27 11:29:21;;;;;;;1.55;0.40;;;18.60;99.90;;;;;;5109775;28;20466;-78
2021/12/27 11:32:09;;;;;;;1.10;0.20;;;18.50;99.90;;;;;;5108932;28;20030;-79
2021/12/27 11:34:58;;;;;;;0.85;0.28;;;18.50;99.90;;;;;;5105509;28;20126;-78
2021/12/27 11:37:43;;;;;;;0.95;0.20;;;18.50;99.90;;;;;;5105790;27;20082;-77
2021/12/27 11:40:14;;;;;;;1.13;0.20;;;18.50;99.90;;;;;;5105751;28;20460;-76
2021/12/27 11:42:56;;;;;;;0.73;0.20;;;18.50;99.90;;;;;;5106983;27;20042;-77
2021/12/27 11:45:44;;;;;;;1.38;0.10;;;18.80;99.90;;;;;;5106347;27;20020;-77
2021/12/27 11:48:18;;;;;;;0.82;0.38;;;18.70;99.90;;;;;;5088623;28;20026;-75
2021/12/27 11:50:57;;;;;;;1.45;0.10;;;18.80;99.90;;;;;;5108826;28;20031;-77
2021/12/27 11:53:34;;;;;;;0.50;0.20;;;18.70;99.90;;;;;;5106138;28;20023;-76
2021/12/27 11:56:08;;;;;;;0.30;0.13;;;18.60;99.90;;;;;;5105701;27;20024;-77
2021/12/27 11:58:45;;;;;;;1.17;0.20;;;18.50;99.90;;;;;;5103875;28;20019;-76
2021/12/27 12:01:25;;;;;;;1.77;0.17;;;18.60;99.90;;;;;;5107958;28;20111;-76
2021/12/27 12:03:58;;;;;;;1.42;0.45;;;18.60;99.90;;;;;;5101839;27;20059;-76
2021/12/27 12:06:44;;;;;;;2.85;0.40;;;18.60;99.90;;;;;;5106548;28;20076;-78
2021/12/27 12:09:18;;;;;;;3.28;0.40;;;18.70;99.90;;;;;;5099698;28;21000;-76
2021/12/27 12:12:00;;;;;;;2.88;0.20;;;18.60;99.90;;;;;;5102663;28;20024;-74
2021/12/27 12:14:34;;;;;;;0.88;0.35;;;18.50;99.90;;;;;;5105220;28;20027;-75
2021/12/27 12:17:04;;;;;;;1.17;0.30;;;18.40;99.90;;;;;;5099423;28;20074;-75
2021/12/27 12:19:44;;;;;;;1.33;0.20;;;18.40;99.90;;;;;;5093170;28;20478;-75
2021/12/27 12:22:33;;;;;;;1.27;0.65;;;18.40;99.90;;;;;;5110597;28;20132;-75
2021/12/27 12:25:13;;;;;;;1.30;0.38;;;18.40;99.90;;;;;;5109314;28;20415;-75
2021/12/27 12:28:01;;;;;;;1.48;0.25;;;18.40;99.90;;;;;;5107670;28;20016;-77
2021/12/27 12:30:39;;;;;;;5.07;0.50;;;18.40;99.90;;;;;;5111423;28;20034;-77
2021/12/27 12:33:12;;;;;;;5.25;1.10;;;18.40;99.90;;;;;;5102458;28;20015;-75
2021/12/27 12:35:45;;;;;;;0.52;0.32;;;18.30;99.90;;;;;;5110649;28;20027;-74
2021/12/27 12:38:21;;;;;;;2.65;0.30;;;18.20;99.90;;;;;;5103474;28;20088;-75
2021/12/27 12:41:06;;;;;;;0.40;0.20;;;18.00;99.90;;;;;;5103371;28;20036;-81
2021/12/27 12:43:33;;;;;;;0.22;0.15;;;17.90;99.90;;;;;;5103514;28;20036;-77
2021/12/27 12:46:16;;;;;;;3.13;0.52;;;17.80;99.90;;;;;;5103047;28;20028;-78
2021/12/27 12:48:55;;;;;;;4.00;0.52;;;17.80;99.90;;;;;;5108077;28;20028;-80
2021/12/27 12:51:35;;;;;;;3.70;0.38;;;17.70;99.90;;;;;;5104175;28;20122;-79
2021/12/27 12:54:05;;;;;;;6.30;0.80;;;17.60;99.90;;;;;;5109159;28;20054;-79
2021/12/27 12:56:34;;;;;;;2.83;0.32;;;17.60;99.90;;;;;;5099853;28;20031;-81
2021/12/27 12:59:02;;;;;;;1.67;0.30;;;17.50;99.90;;;;;;5100615;27;20028;-76
2021/12/27 13:01:29;;;;;;;2.33;0.40;;;17.50;99.90;;;;;;5102069;28;20147;-75
2021/12/27 13:04:00;;;;;;;4.38;0.80;;;17.40;99.90;;;;;;5098169;28;20482;-76
2021/12/27 13:06:29;;;;;;;2.47;0.47;;;17.40;99.90;;;;;;5098193;28;20167;-80